createdAt,value
2022-10-01T00:01:32.831Z,3.77
2022-10-01T00:04:01.373Z,4.73
2022-10-01T00:06:29.312Z,2.97
2022-10-01T00:09:00.140Z,5.00
2022-10-01T00:11:30.423Z,7.20
2022-10-01T00:13:59.085Z,2.80
2022-10-01T00:16:32.813Z,4.50
2022-10-01T00:19:03.166Z,3.80
2022-10-01T00:21:49.512Z,6.17
2022-10-01T00:24:17.358Z,9.20
2022-10-01T00:26:46.982Z,4.43
2022-10-01T00:29:15.894Z,3.40
2022-10-01T00:31:48.436Z,3.23
2022-10-01T00:34:16.308Z,5.53
2022-10-01T00:36:44.165Z,5.40
2022-10-01T00:39:14.012Z,6.00
2022-10-01T00:41:42.593Z,4.97
2022-10-01T00:44:35.428Z,3.97
2022-10-01T00:47:17.515Z,3.37
2022-10-01T00:49:49.534Z,6.73
2022-10-01T00:52:22.825Z,3.10
2022-10-01T00:54:54.485Z,4.00
2022-10-01T00:57:25.199Z,4.43
2022-10-01T00:59:59.988Z,5.17
2022-10-01T01:02:32.010Z,5.47
2022-10-01T01:05:00.500Z,3.20
2022-10-01T01:07:31.634Z,4.03
2022-10-01T01:10:03.835Z,8.27
2022-10-01T01:12:44.686Z,3.07
2022-10-01T01:15:18.982Z,5.33
2022-10-01T01:17:58.275Z,4.07
2022-10-01T01:21:04.580Z,3.37
2022-10-01T01:24:00.195Z,6.90
2022-10-01T01:26:41.038Z,6.50
2022-10-01T01:29:23.803Z,4.47
2022-10-01T01:31:55.293Z,3.63
2022-10-01T01:34:28.376Z,6.73
2022-10-01T01:37:01.271Z,3.70
2022-10-01T01:39:33.248Z,4.70
2022-10-01T01:42:09.163Z,3.57
2022-10-01T01:44:59.861Z,6.00
2022-10-01T01:47:33.173Z,4.87
2022-10-01T01:50:03.905Z,5.27
2022-10-01T01:52:32.219Z,4.03
2022-10-01T01:55:02.272Z,5.00
2022-10-01T01:57:30.250Z,4.60
2022-10-01T02:00:00.014Z,4.60
2022-10-01T02:02:39.285Z,3.33
2022-10-01T02:05:11.314Z,5.47
2022-10-01T02:08:05.026Z,3.10
2022-10-01T02:10:47.945Z,4.40
2022-10-01T02:13:28.128Z,3.50
2022-10-01T02:16:04.836Z,7.40
2022-10-01T02:18:40.350Z,3.63
2022-10-01T02:21:13.599Z,3.83
2022-10-01T02:23:53.481Z,7.13
2022-10-01T02:26:24.554Z,5.87
2022-10-01T02:28:57.342Z,4.93
2022-10-01T02:31:27.444Z,3.60
2022-10-01T02:33:59.260Z,6.50
2022-10-01T02:36:35.064Z,9.10
2022-10-01T02:39:10.058Z,3.20
2022-10-01T02:41:38.153Z,3.30
2022-10-01T02:44:11.795Z,4.30
2022-10-01T02:46:46.266Z,3.63
2022-10-01T02:49:17.399Z,3.47
2022-10-01T02:51:55.948Z,3.47
2022-10-01T02:54:31.223Z,3.10
2022-10-01T02:57:18.116Z,4.57
2022-10-01T02:59:48.828Z,6.50
2022-10-01T03:02:18.771Z,4.30
2022-10-01T03:04:48.295Z,3.70
2022-10-01T03:07:16.706Z,6.30
2022-10-01T03:09:51.391Z,3.83
2022-10-01T03:12:22.291Z,8.53
2022-10-01T03:14:52.619Z,3.13
2022-10-01T03:17:22.278Z,3.80
2022-10-01T03:19:50.086Z,3.00
2022-10-01T03:22:21.258Z,3.20
2022-10-01T03:24:49.131Z,4.60
2022-10-01T03:27:17.540Z,3.60
2022-10-01T03:29:51.201Z,2.80
2022-10-01T03:32:21.135Z,3.13
2022-10-01T03:34:54.497Z,3.10
2022-10-01T03:37:22.339Z,4.83
2022-10-01T03:39:52.463Z,2.77
2022-10-01T03:42:20.377Z,2.73
2022-10-01T03:44:51.647Z,3.33
2022-10-01T03:47:22.126Z,3.10
2022-10-01T03:49:57.786Z,3.77
2022-10-01T03:52:25.641Z,3.30
2022-10-01T03:54:53.991Z,2.20
2022-10-01T03:57:21.790Z,3.37
2022-10-01T03:59:52.450Z,2.90
2022-10-01T04:02:24.648Z,2.43
2022-10-01T04:04:52.482Z,2.67
2022-10-01T04:07:20.252Z,4.70
2022-10-01T04:09:48.071Z,4.17
2022-10-01T04:12:15.856Z,3.90
2022-10-01T04:14:47.259Z,3.33
2022-10-01T04:17:17.145Z,3.47
2022-10-01T04:19:49.486Z,3.03
2022-10-01T04:22:17.258Z,2.57
2022-10-01T04:24:45.117Z,2.43
2022-10-01T04:27:13.428Z,2.17
2022-10-01T04:29:46.636Z,2.20
2022-10-01T04:32:16.012Z,2.20
2022-10-01T04:34:56.019Z,6.30
2022-10-01T04:37:29.518Z,2.10
2022-10-01T04:39:57.538Z,1.40
2022-10-01T04:42:28.080Z,1.70
2022-10-01T04:44:56.801Z,1.63
2022-10-01T04:47:27.023Z,1.63
2022-10-01T04:49:54.822Z,1.67
2022-10-01T04:52:27.284Z,2.10
2022-10-01T04:54:55.044Z,2.40
2022-10-01T04:57:22.865Z,1.43
2022-10-01T05:00:01.650Z,2.80
2022-10-01T05:02:30.113Z,1.27
2022-10-01T05:04:58.528Z,1.13
2022-10-01T05:07:38.819Z,1.40
2022-10-01T05:10:09.578Z,1.53
2022-10-01T05:12:37.746Z,3.63
2022-10-01T05:15:06.625Z,1.70
2022-10-01T05:17:34.699Z,1.33
2022-10-01T05:20:03.227Z,0.83
2022-10-01T05:22:33.788Z,1.73
2022-10-01T05:25:03.376Z,1.20
2022-10-01T05:27:36.287Z,1.90
2022-10-01T05:30:04.192Z,1.00
2022-10-01T05:32:34.806Z,1.53
2022-10-01T05:35:04.774Z,1.13
2022-10-01T05:37:32.805Z,1.90
2022-10-01T05:40:04.745Z,1.17
2022-10-01T05:42:35.003Z,1.20
2022-10-01T05:45:06.195Z,1.50
2022-10-01T05:47:34.508Z,1.20
2022-10-01T05:50:04.782Z,1.40
2022-10-01T05:52:38.180Z,1.13
2022-10-01T05:55:08.125Z,2.23
2022-10-01T05:57:36.454Z,1.63
2022-10-01T06:00:04.576Z,1.80
2022-10-01T06:02:34.631Z,1.00
2022-10-01T06:05:03.004Z,1.43
2022-10-01T06:07:35.231Z,1.27
2022-10-01T06:10:03.442Z,1.10
2022-10-01T06:12:34.258Z,0.80
2022-10-01T06:15:02.070Z,0.80
2022-10-01T06:17:30.341Z,0.90
2022-10-01T06:20:00.452Z,0.90
2022-10-01T06:22:28.243Z,0.80
2022-10-01T06:24:59.810Z,1.30
2022-10-01T06:27:45.049Z,2.07
2022-10-01T06:30:13.935Z,0.70
2022-10-01T06:32:42.177Z,1.10
2022-10-01T06:35:10.218Z,0.60
2022-10-01T06:37:41.156Z,1.40
2022-10-01T06:40:11.995Z,0.60
2022-10-01T06:42:51.745Z,0.60
2022-10-01T06:45:24.645Z,0.70
2022-10-01T06:47:55.637Z,1.00
2022-10-01T06:50:26.600Z,1.27
2022-10-01T06:52:54.833Z,1.57
2022-10-01T06:55:25.900Z,0.67
2022-10-01T06:57:59.337Z,0.90
2022-10-01T07:00:28.380Z,1.57
2022-10-01T07:02:56.362Z,0.70
2022-10-01T07:05:24.412Z,0.90
2022-10-01T07:07:57.941Z,1.00
2022-10-01T07:10:28.831Z,2.70
2022-10-01T07:13:12.608Z,3.03
2022-10-01T07:15:40.623Z,0.70
2022-10-01T07:18:11.721Z,0.60
2022-10-01T07:20:43.098Z,1.30
2022-10-01T07:23:13.787Z,1.87
2022-10-01T07:25:42.447Z,1.27
2022-10-01T07:28:20.549Z,1.07
2022-10-01T07:31:00.558Z,1.43
2022-10-01T07:33:38.984Z,2.17
2022-10-01T07:36:08.741Z,1.40
2022-10-01T07:38:43.899Z,1.47
2022-10-01T07:41:11.752Z,1.20
2022-10-01T07:43:43.738Z,1.27
2022-10-01T07:46:13.920Z,1.70
2022-10-01T07:48:42.164Z,1.40
2022-10-01T07:51:09.978Z,1.40
2022-10-01T07:53:37.984Z,1.90
2022-10-01T07:56:06.027Z,1.80
2022-10-01T07:58:34.228Z,2.40
2022-10-01T08:01:06.097Z,1.50
2022-10-01T08:03:34.584Z,2.03
2022-10-01T08:06:06.725Z,4.50
2022-10-01T08:08:42.375Z,2.77
2022-10-01T08:11:10.282Z,2.37
2022-10-01T08:13:40.912Z,1.67
2022-10-01T08:16:11.776Z,2.90
2022-10-01T08:18:40.513Z,2.43
2022-10-01T08:21:08.708Z,3.60
2022-10-01T08:23:36.942Z,1.40
2022-10-01T08:26:07.406Z,2.83
2022-10-01T08:28:35.574Z,2.10
2022-10-01T08:31:12.902Z,1.67
2022-10-01T08:33:43.143Z,2.13
2022-10-01T08:36:16.851Z,3.33
2022-10-01T08:38:46.572Z,1.40
2022-10-01T08:41:26.432Z,3.47
2022-10-01T08:43:57.046Z,1.60
2022-10-01T08:46:31.746Z,1.40
2022-10-01T08:49:09.374Z,2.33
2022-10-01T08:51:47.581Z,1.70
2022-10-01T08:54:35.985Z,1.73
2022-10-01T08:57:15.908Z,1.93
2022-10-01T08:59:45.881Z,1.80
2022-10-01T09:02:24.653Z,2.07
2022-10-01T09:05:00.307Z,1.60
2022-10-01T09:07:47.055Z,3.77
2022-10-01T09:10:37.619Z,1.80
2022-10-01T09:13:24.115Z,2.73
2022-10-01T09:16:02.110Z,1.80
2022-10-01T09:18:40.875Z,3.17
2022-10-01T09:21:16.258Z,1.50
2022-10-01T09:23:52.540Z,2.67
2022-10-01T09:26:25.742Z,4.20
2022-10-01T09:28:57.341Z,4.00
2022-10-01T09:31:32.524Z,3.87
2022-10-01T09:34:05.407Z,2.97
2022-10-01T09:36:40.789Z,5.60
2022-10-01T09:39:24.337Z,2.43
2022-10-01T09:41:55.812Z,3.10
2022-10-01T09:44:27.998Z,2.80
2022-10-01T09:46:56.361Z,1.60
2022-10-01T09:49:35.675Z,3.63
2022-10-01T09:52:11.976Z,1.53
2022-10-01T09:54:45.922Z,2.30
2022-10-01T09:57:27.286Z,1.60
2022-10-01T10:00:03.295Z,3.00
2022-10-01T10:02:48.881Z,3.07
2022-10-01T10:05:24.206Z,2.50
2022-10-01T10:07:56.962Z,3.77
2022-10-01T10:10:29.880Z,4.73
2022-10-01T10:13:03.275Z,2.73
2022-10-01T10:15:34.807Z,3.80
2022-10-01T10:18:09.588Z,3.33
2022-10-01T10:20:45.163Z,4.23
2022-10-01T10:23:17.506Z,4.67
2022-10-01T10:25:56.144Z,4.53
2022-10-01T10:28:25.552Z,2.87
2022-10-01T10:30:55.655Z,3.30
2022-10-01T10:33:26.378Z,5.53
2022-10-01T10:36:11.311Z,4.60
2022-10-01T10:38:40.036Z,2.90
2022-10-01T10:41:20.117Z,1.93
2022-10-01T10:43:50.511Z,2.00
2022-10-01T10:46:32.716Z,3.00
2022-10-01T10:49:06.735Z,1.60
2022-10-01T10:51:51.218Z,1.67
2022-10-01T10:54:20.847Z,1.40
2022-10-01T10:57:01.183Z,3.33
2022-10-01T10:59:31.939Z,2.20
2022-10-01T11:02:02.053Z,2.00
2022-10-01T11:04:47.388Z,3.53
2022-10-01T11:07:22.389Z,2.93
2022-10-01T11:10:07.144Z,3.70
2022-10-01T11:12:47.700Z,3.10
2022-10-01T11:15:38.978Z,5.90
2022-10-01T11:18:22.990Z,6.73
2022-10-01T11:21:07.408Z,2.60
2022-10-01T11:24:03.107Z,6.27
2022-10-01T11:26:38.170Z,2.33
2022-10-01T11:29:18.314Z,4.77
2022-10-01T11:31:55.659Z,3.03
2022-10-01T11:34:49.863Z,5.13
2022-10-01T11:37:36.017Z,3.40
2022-10-01T11:40:17.938Z,4.50
2022-10-01T11:42:47.448Z,3.60
2022-10-01T11:45:20.256Z,10.57
2022-10-01T11:47:54.807Z,5.10
2022-10-01T11:50:30.284Z,4.90
2022-10-01T11:53:03.188Z,4.00
2022-10-01T11:55:56.507Z,7.53
2022-10-01T11:58:53.159Z,9.30
2022-10-01T12:01:29.922Z,7.37
2022-10-01T12:04:11.059Z,6.90
2022-10-01T12:06:44.175Z,11.77
2022-10-01T12:09:20.991Z,7.87
2022-10-01T12:11:57.692Z,10.57
2022-10-01T12:14:34.090Z,6.13
2022-10-01T12:17:11.134Z,5.73
2022-10-01T12:19:45.145Z,6.93
2022-10-01T12:25:08.169Z,11.47
2022-10-01T12:27:45.339Z,6.70
2022-10-01T12:30:17.156Z,6.87
2022-10-01T12:32:58.628Z,4.10
2022-10-01T12:35:39.372Z,4.60
2022-10-01T12:38:20.718Z,6.90
2022-10-01T12:41:02.436Z,6.43
2022-10-01T12:43:47.734Z,5.50
2022-10-01T12:46:27.393Z,8.27
2022-10-01T12:49:08.257Z,5.73
2022-10-01T12:51:41.758Z,5.70
2022-10-01T12:54:57.851Z,6.27
2022-10-01T12:57:40.935Z,7.77
2022-10-01T13:00:19.035Z,5.67
2022-10-01T13:03:19.595Z,6.47
2022-10-01T13:05:58.536Z,5.57
2022-10-01T13:08:57.635Z,4.90
2022-10-01T13:11:47.686Z,6.37
2022-10-01T13:14:25.907Z,6.50
2022-10-01T13:17:00.916Z,6.13
2022-10-01T13:19:35.482Z,7.83
2022-10-01T13:22:17.187Z,6.53
2022-10-01T13:24:50.013Z,12.70
2022-10-01T13:27:22.580Z,6.37
2022-10-01T13:30:01.179Z,5.63
2022-10-01T13:32:37.926Z,6.73
2022-10-01T13:35:24.019Z,2.30
2022-10-01T13:37:55.109Z,5.83
2022-10-01T13:40:31.134Z,8.67
2022-10-01T13:43:04.129Z,3.63
2022-10-01T13:45:40.908Z,4.43
2022-10-01T13:48:16.648Z,6.50
2022-10-01T13:51:03.299Z,13.00
2022-10-01T13:53:34.610Z,7.13
2022-10-01T13:56:06.535Z,5.70
2022-10-01T13:58:38.808Z,6.17
2022-10-01T14:01:29.388Z,5.83
2022-10-01T14:04:17.429Z,7.57
2022-10-01T14:06:55.031Z,6.67
2022-10-01T14:09:25.911Z,3.63
2022-10-01T14:12:14.448Z,12.73
2022-10-01T14:15:06.942Z,7.90
2022-10-01T14:17:36.159Z,6.30
2022-10-01T14:20:06.539Z,5.17
2022-10-01T14:22:47.758Z,7.80
2022-10-01T14:25:30.645Z,4.43
2022-10-01T14:28:33.997Z,2.63
2022-10-01T14:31:10.389Z,6.97
2022-10-01T14:34:14.332Z,9.43
2022-10-01T14:36:48.594Z,3.57
2022-10-01T14:39:18.454Z,7.93
2022-10-01T14:41:47.763Z,4.53
2022-10-01T14:44:22.607Z,6.20
2022-10-01T14:46:53.613Z,10.40
2022-10-01T14:49:24.284Z,10.73
2022-10-01T14:51:59.660Z,7.70
2022-10-01T14:54:28.662Z,4.17
2022-10-01T14:56:56.827Z,4.30
2022-10-01T14:59:32.527Z,6.17
2022-10-01T15:02:10.451Z,4.27
2022-10-01T15:04:38.714Z,5.10
2022-10-01T15:07:16.051Z,7.00
2022-10-01T15:09:44.703Z,3.80
2022-10-01T15:12:16.728Z,6.27
2022-10-01T15:14:46.305Z,5.40
2022-10-01T15:17:20.246Z,3.37
2022-10-01T15:19:53.980Z,3.50
2022-10-01T15:22:27.891Z,4.57
2022-10-01T15:25:01.208Z,2.50
2022-10-01T15:27:29.100Z,4.90
2022-10-01T15:29:59.529Z,3.17
2022-10-01T15:32:36.512Z,3.20
2022-10-01T15:35:05.035Z,10.43
2022-10-01T15:37:36.716Z,3.27
2022-10-01T15:40:21.507Z,4.30
2022-10-01T15:43:26.311Z,3.30
2022-10-01T15:46:16.280Z,5.37
2022-10-01T15:48:46.877Z,6.97
2022-10-01T15:51:22.266Z,7.40
2022-10-01T15:53:52.003Z,3.70
2022-10-01T15:56:25.866Z,5.23
2022-10-01T15:58:59.119Z,5.80
2022-10-01T16:01:31.337Z,6.10
2022-10-01T16:04:07.950Z,4.03
2022-10-01T16:06:39.351Z,4.63
2022-10-01T16:09:15.599Z,6.00
2022-10-01T16:12:10.665Z,8.87
2022-10-01T16:14:42.198Z,6.67
2022-10-01T16:17:31.394Z,5.07
2022-10-01T16:20:01.453Z,11.03
2022-10-01T16:22:32.666Z,9.73
2022-10-01T16:25:07.147Z,8.03
2022-10-01T16:27:47.762Z,6.30
2022-10-01T16:30:21.537Z,8.60
2022-10-01T16:32:49.499Z,14.87
2022-10-01T16:35:20.670Z,4.53
2022-10-01T16:37:50.043Z,7.50
2022-10-01T16:40:20.179Z,7.13
2022-10-01T16:42:50.419Z,7.63
2022-10-01T16:45:20.357Z,5.67
2022-10-01T16:47:48.158Z,7.67
2022-10-01T16:50:23.081Z,3.63
2022-10-01T16:52:53.508Z,6.10
2022-10-01T16:55:30.219Z,6.30
2022-10-01T16:57:58.134Z,7.37
2022-10-01T17:00:27.913Z,11.17
2022-10-01T17:02:58.491Z,10.10
2022-10-01T17:05:28.684Z,4.30
2022-10-01T17:08:03.306Z,9.80
2022-10-01T17:10:40.502Z,7.10
2022-10-01T17:13:09.136Z,15.30
2022-10-01T17:15:39.163Z,8.40
2022-10-01T17:18:09.974Z,7.60
2022-10-01T17:20:39.067Z,14.33
2022-10-01T17:23:08.327Z,12.63
2022-10-01T17:25:39.479Z,13.03
2022-10-01T17:28:09.643Z,8.30
2022-10-01T17:30:41.180Z,7.33
2022-10-01T17:33:21.906Z,10.17
2022-10-01T17:35:56.773Z,9.00
2022-10-01T17:38:24.673Z,10.87
2022-10-01T17:40:56.963Z,13.20
2022-10-01T17:43:28.229Z,14.33
2022-10-01T17:45:57.399Z,16.53
2022-10-01T17:48:25.958Z,8.50
2022-10-01T17:51:05.375Z,10.73
2022-10-01T17:53:39.715Z,9.73
2022-10-01T17:56:13.359Z,6.67
2022-10-01T17:58:50.482Z,9.17
2022-10-01T18:01:21.393Z,11.40
2022-10-01T18:03:55.247Z,8.17
2022-10-01T18:06:23.925Z,6.47
2022-10-01T18:08:55.528Z,12.03
2022-10-01T18:11:31.816Z,11.73
2022-10-01T18:13:59.726Z,12.37
2022-10-01T18:16:28.329Z,9.50
2022-10-01T18:19:52.478Z,7.97
2022-10-01T18:21:45.789Z,11.27
2022-10-01T18:24:21.531Z,11.13
2022-10-01T18:26:51.116Z,15.60
2022-10-01T18:29:27.808Z,16.17
2022-10-01T18:32:01.644Z,10.10
2022-10-01T18:34:37.303Z,11.00
2022-10-01T18:37:09.814Z,10.30
2022-10-01T18:39:41.856Z,15.57
2022-10-01T18:42:22.530Z,12.50
2022-10-01T18:44:56.266Z,10.63
2022-10-01T18:47:33.888Z,15.27
2022-10-01T18:50:18.404Z,9.23
2022-10-01T18:53:03.698Z,10.70
2022-10-01T18:55:51.812Z,7.93
2022-10-01T18:59:05.220Z,9.17
2022-10-01T19:01:41.479Z,6.73
2022-10-01T19:04:36.695Z,14.20
2022-10-01T19:07:17.280Z,7.03
2022-10-01T19:09:52.316Z,12.83
2022-10-01T19:12:41.111Z,15.60
2022-10-01T19:15:21.060Z,13.77
2022-10-01T19:18:09.531Z,8.80
2022-10-01T19:20:49.651Z,14.10
2022-10-01T19:23:49.292Z,12.67
2022-10-01T19:26:24.706Z,19.00
2022-10-01T19:29:06.308Z,19.00
2022-10-01T19:31:46.405Z,15.60
2022-10-01T19:34:19.947Z,20.80
2022-10-01T19:36:54.846Z,13.37
2022-10-01T19:39:26.700Z,14.73
2022-10-01T19:41:59.210Z,11.27
2022-10-01T19:44:35.319Z,11.40
2022-10-01T19:47:24.548Z,12.70
2022-10-01T19:49:56.954Z,9.43
2022-10-01T19:52:26.822Z,8.87
2022-10-01T19:54:59.183Z,7.37
2022-10-01T19:57:31.243Z,11.77
2022-10-01T20:00:04.431Z,13.33
2022-10-01T20:02:47.550Z,10.47
2022-10-01T20:05:28.744Z,7.63
2022-10-01T20:08:03.547Z,7.43
2022-10-01T20:10:38.609Z,20.03
2022-10-01T20:13:29.268Z,13.70
2022-10-01T20:16:06.272Z,15.67
2022-10-01T20:18:51.583Z,11.33
2022-10-01T20:21:43.711Z,14.80
2022-10-01T20:24:30.777Z,8.20
2022-10-01T20:27:12.836Z,15.17
2022-10-01T20:29:50.029Z,11.93
2022-10-01T20:32:22.340Z,11.87
2022-10-01T20:35:17.165Z,10.63
2022-10-01T20:38:00.232Z,9.90
2022-10-01T20:40:33.160Z,17.60
2022-10-01T20:43:06.281Z,11.00
2022-10-01T20:45:41.606Z,10.63
2022-10-01T20:48:19.200Z,14.53
2022-10-01T20:50:51.734Z,13.33
2022-10-01T20:53:30.130Z,15.40
2022-10-01T20:56:04.924Z,16.20
2022-10-01T20:58:44.797Z,11.50
2022-10-01T21:01:18.509Z,22.33
2022-10-01T21:03:57.104Z,13.57
2022-10-01T21:06:33.298Z,16.50
2022-10-01T21:09:14.293Z,11.33
2022-10-01T21:11:46.419Z,11.37
2022-10-01T21:14:19.868Z,13.43
2022-10-01T21:17:12.502Z,14.37
2022-10-01T21:20:02.615Z,14.47
2022-10-01T21:22:45.671Z,5.93
2022-10-01T21:25:24.575Z,13.37
2022-10-01T21:28:22.980Z,14.70
2022-10-01T21:31:03.075Z,9.13
2022-10-01T21:33:37.618Z,8.20
2022-10-01T21:36:12.558Z,8.47
2022-10-01T21:38:52.937Z,14.13
2022-10-01T21:41:33.970Z,12.17
2022-10-01T21:44:34.315Z,9.53
2022-10-01T21:47:06.506Z,10.27
2022-10-01T21:49:48.502Z,8.47
2022-10-01T21:52:30.547Z,11.50
2022-10-01T21:55:22.884Z,18.33
2022-10-01T21:58:07.262Z,16.20
2022-10-01T22:00:35.585Z,12.23
2022-10-01T22:03:12.453Z,13.93
2022-10-01T22:05:52.672Z,15.40
2022-10-01T22:08:37.861Z,17.20
2022-10-01T22:11:15.102Z,17.77
2022-10-01T22:13:48.863Z,16.70
2022-10-01T22:16:18.722Z,7.50
2022-10-01T22:18:50.199Z,18.17
2022-10-01T22:21:23.964Z,12.80
2022-10-01T22:23:58.523Z,13.93
2022-10-01T22:26:35.508Z,16.17
2022-10-01T22:29:07.507Z,14.73
2022-10-01T22:31:37.913Z,10.47
2022-10-01T22:34:10.566Z,14.13
2022-10-01T22:36:47.208Z,10.00
2022-10-01T22:39:18.959Z,18.50
2022-10-01T22:41:56.380Z,8.00
2022-10-01T22:44:25.215Z,13.10
2022-10-01T22:47:37.951Z,15.73
2022-10-01T22:50:23.157Z,16.30
2022-10-01T22:53:08.544Z,9.03
2022-10-01T22:55:43.217Z,18.23
2022-10-01T22:58:25.089Z,16.30
2022-10-01T23:01:11.140Z,13.07
2022-10-01T23:03:50.970Z,15.53
2022-10-01T23:06:32.550Z,23.80
2022-10-01T23:09:09.444Z,13.20
2022-10-01T23:11:52.605Z,10.57
2022-10-01T23:14:39.972Z,10.63
2022-10-01T23:17:13.180Z,8.97
2022-10-01T23:19:54.851Z,14.57
2022-10-01T23:22:37.043Z,15.87
2022-10-01T23:25:18.679Z,10.37
2022-10-01T23:28:04.789Z,24.60
2022-10-01T23:30:50.503Z,19.50
2022-10-01T23:33:30.483Z,10.23
2022-10-01T23:36:12.320Z,16.03
2022-10-01T23:39:10.103Z,11.30
2022-10-01T23:41:44.856Z,12.33
2022-10-01T23:44:25.048Z,14.50
2022-10-01T23:47:07.787Z,25.47
2022-10-01T23:49:43.713Z,10.27
2022-10-01T23:52:18.162Z,8.37
2022-10-01T23:54:50.057Z,12.80
2022-10-01T23:57:22.775Z,18.23
2022-10-01T23:59:56.572Z,14.30
